sensor_id;sensor_type;location;lat;lon;timestamp;P1;durP1;ratioP1;P2;durP2;ratioP2
39410;SDS011;26579;43.238;23.124;2024-02-16T00:00:14;13.82;;;7.65;;
39410;SDS011;26579;43.238;23.124;2024-02-16T00:02:40;16.38;;;8.38;;
39410;SDS011;26579;43.238;23.124;2024-02-16T00:05:06;18.70;;;8.43;;
39410;SDS011;26579;43.238;23.124;2024-02-16T00:07:33;16.45;;;8.88;;
39410;SDS011;26579;43.238;23.124;2024-02-16T00:09:59;17.75;;;9.30;;
39410;SDS011;26579;43.238;23.124;2024-02-16T00:12:25;14.80;;;8.10;;
39410;SDS011;26579;43.238;23.124;2024-02-16T00:14:54;16.48;;;8.30;;
39410;SDS011;26579;43.238;23.124;2024-02-16T00:17:19;13.68;;;7.63;;
39410;SDS011;26579;43.238;23.124;2024-02-16T00:19:45;15.25;;;8.40;;
39410;SDS011;26579;43.238;23.124;2024-02-16T00:22:13;16.13;;;6.78;;
39410;SDS011;26579;43.238;23.124;2024-02-16T00:24:39;14.05;;;6.72;;
39410;SDS011;26579;43.238;23.124;2024-02-16T00:27:04;15.02;;;6.63;;
39410;SDS011;26579;43.238;23.124;2024-02-16T00:29:30;12.30;;;6.35;;
39410;SDS011;26579;43.238;23.124;2024-02-16T00:31:56;13.73;;;7.35;;
39410;SDS011;26579;43.238;23.124;2024-02-16T00:34:21;11.80;;;6.90;;
39410;SDS011;26579;43.238;23.124;2024-02-16T00:36:47;13.68;;;6.60;;
39410;SDS011;26579;43.238;23.124;2024-02-16T00:39:15;12.73;;;6.45;;
39410;SDS011;26579;43.238;23.124;2024-02-16T00:41:42;13.10;;;6.68;;
39410;SDS011;26579;43.238;23.124;2024-02-16T00:44:09;13.85;;;7.53;;
39410;SDS011;26579;43.238;23.124;2024-02-16T00:46:35;11.23;;;6.07;;
39410;SDS011;26579;43.238;23.124;2024-02-16T00:49:01;14.07;;;6.45;;
39410;SDS011;26579;43.238;23.124;2024-02-16T00:51:27;11.32;;;6.20;;
39410;SDS011;26579;43.238;23.124;2024-02-16T00:53:53;10.50;;;5.53;;
39410;SDS011;26579;43.238;23.124;2024-02-16T00:56:19;16.30;;;6.82;;
39410;SDS011;26579;43.238;23.124;2024-02-16T00:58:44;10.38;;;5.55;;
39410;SDS011;26579;43.238;23.124;2024-02-16T01:01:10;14.60;;;6.45;;
39410;SDS011;26579;43.238;23.124;2024-02-16T01:03:36;13.93;;;6.75;;
39410;SDS011;26579;43.238;23.124;2024-02-16T01:06:03;26.77;;;10.20;;
39410;SDS011;26579;43.238;23.124;2024-02-16T01:08:29;25.65;;;10.25;;
39410;SDS011;26579;43.238;23.124;2024-02-16T01:10:55;27.95;;;12.07;;
39410;SDS011;26579;43.238;23.124;2024-02-16T01:13:21;21.77;;;10.38;;
39410;SDS011;26579;43.238;23.124;2024-02-16T01:15:46;40.30;;;16.83;;
39410;SDS011;26579;43.238;23.124;2024-02-16T01:18:12;33.00;;;15.52;;
39410;SDS011;26579;43.238;23.124;2024-02-16T01:20:38;18.45;;;9.25;;
39410;SDS011;26579;43.238;23.124;2024-02-16T01:23:04;12.57;;;6.68;;
39410;SDS011;26579;43.238;23.124;2024-02-16T01:25:30;11.30;;;6.03;;
39410;SDS011;26579;43.238;23.124;2024-02-16T01:27:58;13.10;;;6.75;;
39410;SDS011;26579;43.238;23.124;2024-02-16T01:30:24;11.18;;;5.75;;
39410;SDS011;26579;43.238;23.124;2024-02-16T01:32:50;13.35;;;6.18;;
39410;SDS011;26579;43.238;23.124;2024-02-16T01:35:15;12.15;;;6.53;;
39410;SDS011;26579;43.238;23.124;2024-02-16T01:37:41;15.45;;;7.32;;
39410;SDS011;26579;43.238;23.124;2024-02-16T01:40:08;8.15;;;5.07;;
39410;SDS011;26579;43.238;23.124;2024-02-16T01:42:35;10.95;;;5.68;;
39410;SDS011;26579;43.238;23.124;2024-02-16T01:45:01;12.15;;;5.45;;
39410;SDS011;26579;43.238;23.124;2024-02-16T01:47:26;9.52;;;5.82;;
39410;SDS011;26579;43.238;23.124;2024-02-16T01:49:52;10.07;;;4.90;;
39410;SDS011;26579;43.238;23.124;2024-02-16T01:52:18;11.55;;;5.60;;
39410;SDS011;26579;43.238;23.124;2024-02-16T01:54:44;8.63;;;5.55;;
39410;SDS011;26579;43.238;23.124;2024-02-16T01:57:10;12.45;;;6.20;;
39410;SDS011;26579;43.238;23.124;2024-02-16T01:59:35;10.73;;;5.88;;
39410;SDS011;26579;43.238;23.124;2024-02-16T02:02:01;12.13;;;5.20;;
39410;SDS011;26579;43.238;23.124;2024-02-16T02:04:26;10.18;;;5.43;;
39410;SDS011;26579;43.238;23.124;2024-02-16T02:06:53;14.38;;;6.75;;
39410;SDS011;26579;43.238;23.124;2024-02-16T02:09:19;14.98;;;6.50;;
39410;SDS011;26579;43.238;23.124;2024-02-16T02:11:45;11.98;;;7.38;;
39410;SDS011;26579;43.238;23.124;2024-02-16T02:14:11;9.30;;;5.20;;
39410;SDS011;26579;43.238;23.124;2024-02-16T02:16:36;9.35;;;4.63;;
39410;SDS011;26579;43.238;23.124;2024-02-16T02:19:02;9.48;;;4.68;;
39410;SDS011;26579;43.238;23.124;2024-02-16T02:21:28;9.95;;;5.80;;
39410;SDS011;26579;43.238;23.124;2024-02-16T02:23:54;13.93;;;5.78;;
39410;SDS011;26579;43.238;23.124;2024-02-16T02:26:20;16.80;;;7.22;;
39410;SDS011;26579;43.238;23.124;2024-02-16T02:28:46;16.98;;;6.25;;
39410;SDS011;26579;43.238;23.124;2024-02-16T02:31:11;11.35;;;5.60;;
39410;SDS011;26579;43.238;23.124;2024-02-16T02:33:38;13.38;;;5.78;;
39410;SDS011;26579;43.238;23.124;2024-02-16T02:36:03;14.40;;;6.07;;
39410;SDS011;26579;43.238;23.124;2024-02-16T02:38:29;12.15;;;6.03;;
39410;SDS011;26579;43.238;23.124;2024-02-16T02:40:55;10.30;;;4.82;;
39410;SDS011;26579;43.238;23.124;2024-02-16T02:43:21;12.50;;;5.50;;
39410;SDS011;26579;43.238;23.124;2024-02-16T02:45:47;12.73;;;5.53;;
39410;SDS011;26579;43.238;23.124;2024-02-16T02:48:13;16.38;;;6.47;;
39410;SDS011;26579;43.238;23.124;2024-02-16T02:50:38;12.35;;;5.70;;
39410;SDS011;26579;43.238;23.124;2024-02-16T02:53:04;11.23;;;5.65;;
39410;SDS011;26579;43.238;23.124;2024-02-16T02:55:29;10.30;;;5.28;;
39410;SDS011;26579;43.238;23.124;2024-02-16T02:57:55;13.00;;;5.63;;
39410;SDS011;26579;43.238;23.124;2024-02-16T03:00:21;11.02;;;5.13;;
39410;SDS011;26579;43.238;23.124;2024-02-16T03:02:47;9.40;;;5.00;;
39410;SDS011;26579;43.238;23.124;2024-02-16T03:05:12;9.52;;;4.82;;
39410;SDS011;26579;43.238;23.124;2024-02-16T03:07:38;9.20;;;5.57;;
39410;SDS011;26579;43.238;23.124;2024-02-16T03:10:04;9.23;;;5.13;;
39410;SDS011;26579;43.238;23.124;2024-02-16T03:12:31;9.70;;;4.72;;
39410;SDS011;26579;43.238;23.124;2024-02-16T03:14:57;10.52;;;4.80;;
39410;SDS011;26579;43.238;23.124;2024-02-16T03:17:23;9.25;;;4.72;;
39410;SDS011;26579;43.238;23.124;2024-02-16T03:19:48;12.63;;;5.50;;
39410;SDS011;26579;43.238;23.124;2024-02-16T03:22:14;13.35;;;6.60;;
39410;SDS011;26579;43.238;23.124;2024-02-16T03:24:39;11.02;;;5.43;;
39410;SDS011;26579;43.238;23.124;2024-02-16T03:27:05;10.65;;;5.50;;
39410;SDS011;26579;43.238;23.124;2024-02-16T03:29:30;10.98;;;5.90;;
39410;SDS011;26579;43.238;23.124;2024-02-16T03:31:56;11.30;;;5.28;;
39410;SDS011;26579;43.238;23.124;2024-02-16T03:34:22;12.80;;;6.95;;
39410;SDS011;26579;43.238;23.124;2024-02-16T03:36:47;8.02;;;4.55;;
39410;SDS011;26579;43.238;23.124;2024-02-16T03:39:13;13.18;;;6.28;;
39410;SDS011;26579;43.238;23.124;2024-02-16T03:41:39;10.65;;;5.75;;
39410;SDS011;26579;43.238;23.124;2024-02-16T03:44:04;18.15;;;8.63;;
39410;SDS011;26579;43.238;23.124;2024-02-16T03:46:30;19.27;;;10.00;;
39410;SDS011;26579;43.238;23.124;2024-02-16T03:48:55;15.13;;;8.45;;
39410;SDS011;26579;43.238;23.124;2024-02-16T03:51:21;21.80;;;10.73;;
39410;SDS011;26579;43.238;23.124;2024-02-16T03:53:47;19.67;;;8.90;;
39410;SDS011;26579;43.238;23.124;2024-02-16T03:56:18;14.30;;;6.82;;
39410;SDS011;26579;43.238;23.124;2024-02-16T03:58:44;15.00;;;6.40;;
39410;SDS011;26579;43.238;23.124;2024-02-16T04:01:09;13.25;;;6.63;;
39410;SDS011;26579;43.238;23.124;2024-02-16T04:03:35;12.68;;;6.47;;
39410;SDS011;26579;43.238;23.124;2024-02-16T04:06:01;10.63;;;6.10;;
39410;SDS011;26579;43.238;23.124;2024-02-16T04:08:26;10.50;;;6.30;;
39410;SDS011;26579;43.238;23.124;2024-02-16T04:10:52;8.82;;;4.82;;
39410;SDS011;26579;43.238;23.124;2024-02-16T04:13:18;10.00;;;5.10;;
39410;SDS011;26579;43.238;23.124;2024-02-16T04:15:43;7.75;;;4.00;;
39410;SDS011;26579;43.238;23.124;2024-02-16T04:18:09;8.30;;;3.72;;
39410;SDS011;26579;43.238;23.124;2024-02-16T04:20:35;10.73;;;4.40;;
39410;SDS011;26579;43.238;23.124;2024-02-16T04:23:01;7.45;;;4.05;;
39410;SDS011;26579;43.238;23.124;2024-02-16T04:25:27;9.82;;;4.90;;
39410;SDS011;26579;43.238;23.124;2024-02-16T04:27:53;14.25;;;6.68;;
39410;SDS011;26579;43.238;23.124;2024-02-16T04:30:18;15.93;;;7.60;;
39410;SDS011;26579;43.238;23.124;2024-02-16T04:32:44;16.05;;;7.65;;
39410;SDS011;26579;43.238;23.124;2024-02-16T04:35:09;11.20;;;5.75;;
39410;SDS011;26579;43.238;23.124;2024-02-16T04:37:35;11.63;;;5.68;;
39410;SDS011;26579;43.238;23.124;2024-02-16T04:40:01;11.48;;;5.07;;
39410;SDS011;26579;43.238;23.124;2024-02-16T04:42:26;8.13;;;4.90;;
39410;SDS011;26579;43.238;23.124;2024-02-16T04:44:52;8.63;;;4.07;;
39410;SDS011;26579;43.238;23.124;2024-02-16T04:47:18;9.93;;;4.70;;
39410;SDS011;26579;43.238;23.124;2024-02-16T04:49:43;9.50;;;4.18;;
39410;SDS011;26579;43.238;23.124;2024-02-16T04:52:09;8.68;;;5.03;;
39410;SDS011;26579;43.238;23.124;2024-02-16T04:54:34;11.55;;;6.00;;
39410;SDS011;26579;43.238;23.124;2024-02-16T04:57:00;12.55;;;6.70;;
39410;SDS011;26579;43.238;23.124;2024-02-16T04:59:26;13.85;;;6.05;;
39410;SDS011;26579;43.238;23.124;2024-02-16T05:01:51;12.40;;;6.00;;
39410;SDS011;26579;43.238;23.124;2024-02-16T05:04:17;10.38;;;5.72;;
39410;SDS011;26579;43.238;23.124;2024-02-16T05:06:43;11.95;;;6.35;;
39410;SDS011;26579;43.238;23.124;2024-02-16T05:09:09;9.45;;;6.03;;
39410;SDS011;26579;43.238;23.124;2024-02-16T05:11:34;9.57;;;5.20;;
39410;SDS011;26579;43.238;23.124;2024-02-16T05:14:00;12.77;;;7.53;;
39410;SDS011;26579;43.238;23.124;2024-02-16T05:16:26;16.77;;;9.02;;
39410;SDS011;26579;43.238;23.124;2024-02-16T05:18:52;20.15;;;9.73;;
39410;SDS011;26579;43.238;23.124;2024-02-16T05:21:18;20.85;;;10.55;;
39410;SDS011;26579;43.238;23.124;2024-02-16T05:23:44;23.55;;;11.52;;
39410;SDS011;26579;43.238;23.124;2024-02-16T05:26:10;21.98;;;11.75;;
39410;SDS011;26579;43.238;23.124;2024-02-16T05:28:35;22.23;;;10.85;;
39410;SDS011;26579;43.238;23.124;2024-02-16T05:31:04;25.40;;;12.23;;
39410;SDS011;26579;43.238;23.124;2024-02-16T05:33:43;17.95;;;10.85;;
39410;SDS011;26579;43.238;23.124;2024-02-16T05:36:10;27.48;;;12.45;;
39410;SDS011;26579;43.238;23.124;2024-02-16T05:38:36;29.95;;;13.07;;
39410;SDS011;26579;43.238;23.124;2024-02-16T05:41:04;26.05;;;10.90;;
39410;SDS011;26579;43.238;23.124;2024-02-16T05:43:30;20.52;;;10.57;;
39410;SDS011;26579;43.238;23.124;2024-02-16T05:45:55;21.25;;;10.75;;
39410;SDS011;26579;43.238;23.124;2024-02-16T05:48:21;23.55;;;12.93;;
39410;SDS011;26579;43.238;23.124;2024-02-16T05:50:47;31.80;;;17.75;;
39410;SDS011;26579;43.238;23.124;2024-02-16T05:53:12;34.30;;;14.38;;
39410;SDS011;26579;43.238;23.124;2024-02-16T05:55:38;31.58;;;15.80;;
39410;SDS011;26579;43.238;23.124;2024-02-16T05:58:04;44.33;;;19.02;;
39410;SDS011;26579;43.238;23.124;2024-02-16T06:00:31;34.42;;;16.08;;
39410;SDS011;26579;43.238;23.124;2024-02-16T06:02:58;27.70;;;13.90;;
39410;SDS011;26579;43.238;23.124;2024-02-16T06:05:24;30.25;;;14.00;;
39410;SDS011;26579;43.238;23.124;2024-02-16T06:07:50;22.05;;;11.95;;
39410;SDS011;26579;43.238;23.124;2024-02-16T06:10:15;22.80;;;11.73;;
39410;SDS011;26579;43.238;23.124;2024-02-16T06:12:41;27.85;;;13.90;;
39410;SDS011;26579;43.238;23.124;2024-02-16T06:15:07;19.70;;;10.48;;
39410;SDS011;26579;43.238;23.124;2024-02-16T06:17:33;26.60;;;12.27;;
39410;SDS011;26579;43.238;23.124;2024-02-16T06:19:58;28.05;;;12.55;;
39410;SDS011;26579;43.238;23.124;2024-02-16T06:22:24;21.48;;;11.40;;
39410;SDS011;26579;43.238;23.124;2024-02-16T06:24:50;18.55;;;9.75;;
39410;SDS011;26579;43.238;23.124;2024-02-16T06:27:15;30.73;;;12.88;;
39410;SDS011;26579;43.238;23.124;2024-02-16T06:29:41;26.52;;;13.15;;
39410;SDS011;26579;43.238;23.124;2024-02-16T06:32:07;31.27;;;16.20;;
39410;SDS011;26579;43.238;23.124;2024-02-16T06:34:32;29.85;;;15.93;;
39410;SDS011;26579;43.238;23.124;2024-02-16T06:36:58;34.17;;;15.73;;
39410;SDS011;26579;43.238;23.124;2024-02-16T06:39:24;40.58;;;21.02;;
39410;SDS011;26579;43.238;23.124;2024-02-16T06:41:50;38.13;;;19.23;;
39410;SDS011;26579;43.238;23.124;2024-02-16T06:44:15;37.60;;;17.25;;
39410;SDS011;26579;43.238;23.124;2024-02-16T06:46:41;27.95;;;14.20;;
39410;SDS011;26579;43.238;23.124;2024-02-16T06:49:08;25.20;;;14.35;;
39410;SDS011;26579;43.238;23.124;2024-02-16T06:51:33;24.00;;;12.98;;
39410;SDS011;26579;43.238;23.124;2024-02-16T06:53:59;30.20;;;15.77;;
39410;SDS011;26579;43.238;23.124;2024-02-16T06:56:25;24.67;;;13.70;;
39410;SDS011;26579;43.238;23.124;2024-02-16T06:58:50;17.60;;;9.88;;
39410;SDS011;26579;43.238;23.124;2024-02-16T07:01:16;18.70;;;10.88;;
39410;SDS011;26579;43.238;23.124;2024-02-16T07:03:43;12.77;;;8.05;;
39410;SDS011;26579;43.238;23.124;2024-02-16T07:06:08;17.05;;;8.93;;
39410;SDS011;26579;43.238;23.124;2024-02-16T07:08:34;12.15;;;8.00;;
39410;SDS011;26579;43.238;23.124;2024-02-16T07:11:03;11.93;;;7.40;;
39410;SDS011;26579;43.238;23.124;2024-02-16T07:13:30;16.55;;;9.75;;
39410;SDS011;26579;43.238;23.124;2024-02-16T07:15:59;19.75;;;11.95;;
39410;SDS011;26579;43.238;23.124;2024-02-16T07:18:25;22.20;;;12.05;;
39410;SDS011;26579;43.238;23.124;2024-02-16T07:20:50;18.60;;;10.27;;
39410;SDS011;26579;43.238;23.124;2024-02-16T07:23:16;15.10;;;8.68;;
39410;SDS011;26579;43.238;23.124;2024-02-16T07:25:42;16.27;;;7.13;;
39410;SDS011;26579;43.238;23.124;2024-02-16T07:28:08;17.35;;;10.07;;
39410;SDS011;26579;43.238;23.124;2024-02-16T07:30:34;16.00;;;9.70;;
39410;SDS011;26579;43.238;23.124;2024-02-16T07:33:00;16.40;;;9.88;;
39410;SDS011;26579;43.238;23.124;2024-02-16T07:35:26;16.10;;;8.63;;
39410;SDS011;26579;43.238;23.124;2024-02-16T07:37:52;12.30;;;7.20;;
39410;SDS011;26579;43.238;23.124;2024-02-16T07:40:17;16.98;;;7.60;;
39410;SDS011;26579;43.238;23.124;2024-02-16T07:42:43;18.33;;;9.55;;
39410;SDS011;26579;43.238;23.124;2024-02-16T07:45:09;12.95;;;7.55;;
39410;SDS011;26579;43.238;23.124;2024-02-16T07:47:34;23.17;;;15.10;;
39410;SDS011;26579;43.238;23.124;2024-02-16T07:50:00;15.65;;;7.50;;
39410;SDS011;26579;43.238;23.124;2024-02-16T07:52:26;12.18;;;7.25;;
39410;SDS011;26579;43.238;23.124;2024-02-16T07:54:52;11.13;;;7.05;;
39410;SDS011;26579;43.238;23.124;2024-02-16T07:57:17;11.68;;;7.50;;
39410;SDS011;26579;43.238;23.124;2024-02-16T07:59:43;21.60;;;9.30;;
39410;SDS011;26579;43.238;23.124;2024-02-16T08:02:09;19.05;;;13.02;;
39410;SDS011;26579;43.238;23.124;2024-02-16T08:04:35;9.18;;;5.15;;
39410;SDS011;26579;43.238;23.124;2024-02-16T08:07:01;17.27;;;9.25;;
39410;SDS011;26579;43.238;23.124;2024-02-16T08:09:27;7.35;;;4.35;;
39410;SDS011;26579;43.238;23.124;2024-02-16T08:11:52;13.38;;;11.68;;
39410;SDS011;26579;43.238;23.124;2024-02-16T08:14:18;7.20;;;4.03;;
39410;SDS011;26579;43.238;23.124;2024-02-16T08:16:44;5.50;;;2.75;;
39410;SDS011;26579;43.238;23.124;2024-02-16T08:19:09;3.75;;;2.60;;
39410;SDS011;26579;43.238;23.124;2024-02-16T08:21:35;4.10;;;2.92;;
39410;SDS011;26579;43.238;23.124;2024-02-16T08:24:00;8.27;;;4.00;;
39410;SDS011;26579;43.238;23.124;2024-02-16T08:26:26;12.18;;;6.85;;
39410;SDS011;26579;43.238;23.124;2024-02-16T08:28:52;8.43;;;4.50;;
39410;SDS011;26579;43.238;23.124;2024-02-16T08:31:17;6.03;;;4.25;;
39410;SDS011;26579;43.238;23.124;2024-02-16T08:33:44;4.47;;;2.95;;
39410;SDS011;26579;43.238;23.124;2024-02-16T08:36:10;6.07;;;2.90;;
39410;SDS011;26579;43.238;23.124;2024-02-16T08:38:38;4.47;;;2.70;;
39410;SDS011;26579;43.238;23.124;2024-02-16T08:41:04;9.20;;;3.28;;
39410;SDS011;26579;43.238;23.124;2024-02-16T08:43:30;6.00;;;3.85;;
39410;SDS011;26579;43.238;23.124;2024-02-16T08:45:55;7.57;;;4.72;;
39410;SDS011;26579;43.238;23.124;2024-02-16T08:48:21;6.68;;;4.13;;
39410;SDS011;26579;43.238;23.124;2024-02-16T08:50:49;10.40;;;8.27;;
39410;SDS011;26579;43.238;23.124;2024-02-16T08:53:15;9.70;;;8.05;;
39410;SDS011;26579;43.238;23.124;2024-02-16T08:55:41;7.20;;;3.75;;
39410;SDS011;26579;43.238;23.124;2024-02-16T08:58:07;9.18;;;5.20;;
39410;SDS011;26579;43.238;23.124;2024-02-16T09:00:33;11.02;;;9.82;;
39410;SDS011;26579;43.238;23.124;2024-02-16T09:02:59;4.65;;;3.20;;
39410;SDS011;26579;43.238;23.124;2024-02-16T09:05:25;5.20;;;3.78;;
39410;SDS011;26579;43.238;23.124;2024-02-16T09:07:51;7.15;;;3.53;;
39410;SDS011;26579;43.238;23.124;2024-02-16T09:10:16;5.10;;;3.97;;
39410;SDS011;26579;43.238;23.124;2024-02-16T09:12:42;3.92;;;2.95;;
39410;SDS011;26579;43.238;23.124;2024-02-16T09:15:08;4.70;;;3.08;;
39410;SDS011;26579;43.238;23.124;2024-02-16T09:17:34;7.30;;;3.15;;
39410;SDS011;26579;43.238;23.124;2024-02-16T09:19:59;7.13;;;3.28;;
39410;SDS011;26579;43.238;23.124;2024-02-16T09:22:25;7.45;;;3.55;;
39410;SDS011;26579;43.238;23.124;2024-02-16T09:24:51;5.03;;;2.97;;
39410;SDS011;26579;43.238;23.124;2024-02-16T09:27:16;4.50;;;2.78;;
39410;SDS011;26579;43.238;23.124;2024-02-16T09:29:42;4.25;;;2.90;;
39410;SDS011;26579;43.238;23.124;2024-02-16T09:32:08;6.63;;;3.90;;
39410;SDS011;26579;43.238;23.124;2024-02-16T09:34:35;7.13;;;4.28;;
39410;SDS011;26579;43.238;23.124;2024-02-16T09:37:01;7.85;;;3.90;;
39410;SDS011;26579;43.238;23.124;2024-02-16T09:39:27;10.90;;;3.10;;
39410;SDS011;26579;43.238;23.124;2024-02-16T09:41:52;4.85;;;3.40;;
39410;SDS011;26579;43.238;23.124;2024-02-16T09:44:20;9.25;;;4.50;;
39410;SDS011;26579;43.238;23.124;2024-02-16T09:46:47;5.75;;;3.95;;
39410;SDS011;26579;43.238;23.124;2024-02-16T09:49:13;6.85;;;4.43;;
39410;SDS011;26579;43.238;23.124;2024-02-16T09:51:38;7.00;;;3.38;;
39410;SDS011;26579;43.238;23.124;2024-02-16T09:54:04;4.70;;;3.42;;
39410;SDS011;26579;43.238;23.124;2024-02-16T09:56:30;7.10;;;4.43;;
39410;SDS011;26579;43.238;23.124;2024-02-16T09:58:55;4.82;;;3.30;;
39410;SDS011;26579;43.238;23.124;2024-02-16T10:01:21;4.55;;;3.35;;
39410;SDS011;26579;43.238;23.124;2024-02-16T10:03:48;11.45;;;5.35;;
39410;SDS011;26579;43.238;23.124;2024-02-16T10:06:14;4.10;;;2.88;;
39410;SDS011;26579;43.238;23.124;2024-02-16T10:11:32;5.13;;;3.25;;
39410;SDS011;26579;43.238;23.124;2024-02-16T10:14:00;6.35;;;3.13;;
39410;SDS011;26579;43.238;23.124;2024-02-16T10:16:27;4.68;;;3.33;;
39410;SDS011;26579;43.238;23.124;2024-02-16T10:18:54;6.80;;;4.43;;
39410;SDS011;26579;43.238;23.124;2024-02-16T10:21:24;7.28;;;4.32;;
39410;SDS011;26579;43.238;23.124;2024-02-16T10:24:05;6.78;;;4.32;;
39410;SDS011;26579;43.238;23.124;2024-02-16T10:26:31;18.75;;;9.10;;
39410;SDS011;26579;43.238;23.124;2024-02-16T10:28:57;14.30;;;5.03;;
39410;SDS011;26579;43.238;23.124;2024-02-16T10:31:24;4.63;;;3.25;;
39410;SDS011;26579;43.238;23.124;2024-02-16T10:33:50;6.90;;;3.17;;
39410;SDS011;26579;43.238;23.124;2024-02-16T10:36:17;9.23;;;4.70;;
39410;SDS011;26579;43.238;23.124;2024-02-16T10:38:43;4.80;;;2.85;;
39410;SDS011;26579;43.238;23.124;2024-02-16T10:41:10;3.97;;;2.58;;
39410;SDS011;26579;43.238;23.124;2024-02-16T10:43:36;4.65;;;3.40;;
39410;SDS011;26579;43.238;23.124;2024-02-16T10:46:02;6.68;;;3.30;;
39410;SDS011;26579;43.238;23.124;2024-02-16T10:48:28;4.22;;;2.67;;
39410;SDS011;26579;43.238;23.124;2024-02-16T10:50:54;5.80;;;4.03;;
39410;SDS011;26579;43.238;23.124;2024-02-16T10:53:26;5.18;;;3.22;;
39410;SDS011;26579;43.238;23.124;2024-02-16T10:55:57;12.55;;;7.28;;
39410;SDS011;26579;43.238;23.124;2024-02-16T10:58:23;9.65;;;5.70;;
39410;SDS011;26579;43.238;23.124;2024-02-16T11:00:49;5.90;;;3.85;;
39410;SDS011;26579;43.238;23.124;2024-02-16T11:03:16;4.28;;;3.05;;
39410;SDS011;26579;43.238;23.124;2024-02-16T11:05:43;4.75;;;2.70;;
39410;SDS011;26579;43.238;23.124;2024-02-16T11:08:13;3.67;;;2.63;;
39410;SDS011;26579;43.238;23.124;2024-02-16T11:10:39;5.63;;;3.78;;
39410;SDS011;26579;43.238;23.124;2024-02-16T11:13:05;5.05;;;3.33;;
39410;SDS011;26579;43.238;23.124;2024-02-16T11:15:32;5.55;;;4.22;;
39410;SDS011;26579;43.238;23.124;2024-02-16T11:18:01;4.00;;;2.90;;
39410;SDS011;26579;43.238;23.124;2024-02-16T11:20:27;13.48;;;3.72;;
39410;SDS011;26579;43.238;23.124;2024-02-16T11:22:53;4.28;;;2.80;;
39410;SDS011;26579;43.238;23.124;2024-02-16T11:25:33;9.13;;;4.20;;
39410;SDS011;26579;43.238;23.124;2024-02-16T11:27:59;11.30;;;5.15;;
39410;SDS011;26579;43.238;23.124;2024-02-16T11:30:25;6.97;;;3.92;;
39410;SDS011;26579;43.238;23.124;2024-02-16T11:32:51;6.30;;;4.20;;
39410;SDS011;26579;43.238;23.124;2024-02-16T11:35:17;4.82;;;3.60;;
39410;SDS011;26579;43.238;23.124;2024-02-16T11:37:42;5.90;;;3.90;;
39410;SDS011;26579;43.238;23.124;2024-02-16T11:40:11;4.90;;;3.35;;
39410;SDS011;26579;43.238;23.124;2024-02-16T11:42:37;5.38;;;3.80;;
39410;SDS011;26579;43.238;23.124;2024-02-16T11:45:03;7.72;;;4.30;;
39410;SDS011;26579;43.238;23.124;2024-02-16T11:47:28;5.50;;;3.50;;
39410;SDS011;26579;43.238;23.124;2024-02-16T11:50:04;7.65;;;5.47;;
39410;SDS011;26579;43.238;23.124;2024-02-16T11:52:31;15.50;;;9.48;;
39410;SDS011;26579;43.238;23.124;2024-02-16T11:54:57;12.55;;;7.80;;
39410;SDS011;26579;43.238;23.124;2024-02-16T11:57:23;6.88;;;3.78;;
39410;SDS011;26579;43.238;23.124;2024-02-16T11:59:49;6.13;;;3.75;;
39410;SDS011;26579;43.238;23.124;2024-02-16T12:02:17;6.93;;;3.97;;
39410;SDS011;26579;43.238;23.124;2024-02-16T12:04:43;7.45;;;3.67;;
39410;SDS011;26579;43.238;23.124;2024-02-16T12:07:09;7.53;;;3.95;;
39410;SDS011;26579;43.238;23.124;2024-02-16T12:09:38;7.57;;;4.65;;
39410;SDS011;26579;43.238;23.124;2024-02-16T12:12:04;7.18;;;3.50;;
39410;SDS011;26579;43.238;23.124;2024-02-16T12:14:30;9.43;;;3.35;;
39410;SDS011;26579;43.238;23.124;2024-02-16T12:16:56;7.40;;;4.53;;
39410;SDS011;26579;43.238;23.124;2024-02-16T12:19:23;13.23;;;4.10;;
39410;SDS011;26579;43.238;23.124;2024-02-16T12:21:49;8.05;;;4.25;;
39410;SDS011;26579;43.238;23.124;2024-02-16T12:24:17;5.85;;;3.88;;
39410;SDS011;26579;43.238;23.124;2024-02-16T12:26:43;6.55;;;4.72;;
39410;SDS011;26579;43.238;23.124;2024-02-16T12:29:08;7.00;;;4.57;;
39410;SDS011;26579;43.238;23.124;2024-02-16T12:31:34;6.78;;;4.07;;
39410;SDS011;26579;43.238;23.124;2024-02-16T12:34:00;8.77;;;4.10;;
39410;SDS011;26579;43.238;23.124;2024-02-16T12:36:25;5.70;;;3.83;;
39410;SDS011;26579;43.238;23.124;2024-02-16T12:38:51;5.18;;;3.38;;
39410;SDS011;26579;43.238;23.124;2024-02-16T12:41:16;4.82;;;2.83;;
39410;SDS011;26579;43.238;23.124;2024-02-16T12:43:42;6.40;;;3.40;;
39410;SDS011;26579;43.238;23.124;2024-02-16T12:46:08;5.53;;;3.67;;
39410;SDS011;26579;43.238;23.124;2024-02-16T12:48:33;7.05;;;3.88;;
39410;SDS011;26579;43.238;23.124;2024-02-16T12:50:59;11.38;;;4.47;;
39410;SDS011;26579;43.238;23.124;2024-02-16T12:53:25;5.47;;;3.53;;
39410;SDS011;26579;43.238;23.124;2024-02-16T12:55:50;6.07;;;3.30;;
39410;SDS011;26579;43.238;23.124;2024-02-16T12:58:16;8.60;;;4.28;;
39410;SDS011;26579;43.238;23.124;2024-02-16T13:00:41;5.05;;;3.35;;
39410;SDS011;26579;43.238;23.124;2024-02-16T13:03:07;5.38;;;4.00;;
39410;SDS011;26579;43.238;23.124;2024-02-16T13:05:33;4.65;;;3.30;;
39410;SDS011;26579;43.238;23.124;2024-02-16T13:07:59;7.18;;;4.05;;
39410;SDS011;26579;43.238;23.124;2024-02-16T13:10:24;6.53;;;3.50;;
39410;SDS011;26579;43.238;23.124;2024-02-16T13:12:50;6.75;;;4.10;;
39410;SDS011;26579;43.238;23.124;2024-02-16T13:15:16;6.30;;;3.28;;
39410;SDS011;26579;43.238;23.124;2024-02-16T13:17:41;6.35;;;3.10;;
39410;SDS011;26579;43.238;23.124;2024-02-16T13:20:07;6.28;;;3.10;;
39410;SDS011;26579;43.238;23.124;2024-02-16T13:22:33;4.55;;;2.95;;
39410;SDS011;26579;43.238;23.124;2024-02-16T13:24:59;5.43;;;2.97;;
39410;SDS011;26579;43.238;23.124;2024-02-16T13:27:25;4.78;;;2.42;;
39410;SDS011;26579;43.238;23.124;2024-02-16T13:29:50;6.47;;;3.15;;
39410;SDS011;26579;43.238;23.124;2024-02-16T13:32:16;5.53;;;2.65;;
39410;SDS011;26579;43.238;23.124;2024-02-16T13:34:41;4.88;;;2.70;;
39410;SDS011;26579;43.238;23.124;2024-02-16T13:37:07;5.28;;;3.08;;
39410;SDS011;26579;43.238;23.124;2024-02-16T13:39:32;9.82;;;4.05;;
39410;SDS011;26579;43.238;23.124;2024-02-16T13:41:58;4.10;;;2.78;;
39410;SDS011;26579;43.238;23.124;2024-02-16T13:44:24;8.57;;;4.32;;
39410;SDS011;26579;43.238;23.124;2024-02-16T13:46:50;15.85;;;8.45;;
39410;SDS011;26579;43.238;23.124;2024-02-16T13:49:16;15.00;;;7.75;;
39410;SDS011;26579;43.238;23.124;2024-02-16T13:51:41;8.25;;;4.03;;
39410;SDS011;26579;43.238;23.124;2024-02-16T13:54:07;6.40;;;3.10;;
39410;SDS011;26579;43.238;23.124;2024-02-16T13:56:33;6.45;;;3.22;;
39410;SDS011;26579;43.238;23.124;2024-02-16T13:58:59;6.68;;;3.25;;
39410;SDS011;26579;43.238;23.124;2024-02-16T14:01:24;6.28;;;3.15;;
39410;SDS011;26579;43.238;23.124;2024-02-16T14:03:50;8.32;;;3.42;;
39410;SDS011;26579;43.238;23.124;2024-02-16T14:06:16;6.28;;;3.70;;
39410;SDS011;26579;43.238;23.124;2024-02-16T14:08:42;7.60;;;4.03;;
39410;SDS011;26579;43.238;23.124;2024-02-16T14:11:07;6.95;;;4.32;;
39410;SDS011;26579;43.238;23.124;2024-02-16T14:13:33;7.03;;;3.45;;
39410;SDS011;26579;43.238;23.124;2024-02-16T14:15:59;8.43;;;4.07;;
39410;SDS011;26579;43.238;23.124;2024-02-16T14:18:25;7.20;;;4.47;;
39410;SDS011;26579;43.238;23.124;2024-02-16T14:20:50;7.30;;;3.80;;